sensor_id;sensor_type;location;lat;lon;timestamp;P1;durP1;ratioP1;P2;durP2;ratioP2
13981;SDS011;7065;50.880;5.502;2023-02-15T00:01:25;34.75;;;21.58;;
13981;SDS011;7065;50.880;5.502;2023-02-15T00:03:51;28.65;;;19.45;;
13981;SDS011;7065;50.880;5.502;2023-02-15T00:06:16;28.48;;;20.60;;
13981;SDS011;7065;50.880;5.502;2023-02-15T00:08:43;32.50;;;21.80;;
13981;SDS011;7065;50.880;5.502;2023-02-15T00:11:10;29.27;;;19.90;;
13981;SDS011;7065;50.880;5.502;2023-02-15T00:13:38;29.40;;;19.90;;
13981;SDS011;7065;50.880;5.502;2023-02-15T00:16:07;32.72;;;22.02;;
13981;SDS011;7065;50.880;5.502;2023-02-15T00:18:35;37.50;;;24.85;;
13981;SDS011;7065;50.880;5.502;2023-02-15T00:21:07;41.53;;;24.30;;
13981;SDS011;7065;50.880;5.502;2023-02-15T00:23:34;39.08;;;24.67;;
13981;SDS011;7065;50.880;5.502;2023-02-15T00:26:08;41.88;;;26.73;;
13981;SDS011;7065;50.880;5.502;2023-02-15T00:28:35;40.85;;;25.33;;
13981;SDS011;7065;50.880;5.502;2023-02-15T00:31:08;43.10;;;25.75;;
13981;SDS011;7065;50.880;5.502;2023-02-15T00:33:35;38.17;;;24.05;;
13981;SDS011;7065;50.880;5.502;2023-02-15T00:36:02;32.40;;;22.30;;
13981;SDS011;7065;50.880;5.502;2023-02-15T00:38:29;35.38;;;23.20;;
13981;SDS011;7065;50.880;5.502;2023-02-15T00:40:57;46.47;;;26.55;;
13981;SDS011;7065;50.880;5.502;2023-02-15T00:43:24;41.47;;;25.38;;
13981;SDS011;7065;50.880;5.502;2023-02-15T00:45:51;37.70;;;24.52;;
13981;SDS011;7065;50.880;5.502;2023-02-15T00:48:17;41.00;;;24.70;;
13981;SDS011;7065;50.880;5.502;2023-02-15T00:50:48;40.97;;;25.83;;
13981;SDS011;7065;50.880;5.502;2023-02-15T00:53:16;39.42;;;25.25;;
13981;SDS011;7065;50.880;5.502;2023-02-15T00:55:42;38.08;;;23.98;;
13981;SDS011;7065;50.880;5.502;2023-02-15T00:58:09;39.60;;;25.27;;
13981;SDS011;7065;50.880;5.502;2023-02-15T01:00:36;39.47;;;24.45;;
13981;SDS011;7065;50.880;5.502;2023-02-15T01:03:02;43.00;;;26.33;;
13981;SDS011;7065;50.880;5.502;2023-02-15T01:05:28;38.58;;;24.52;;
13981;SDS011;7065;50.880;5.502;2023-02-15T01:07:55;36.58;;;24.52;;
13981;SDS011;7065;50.880;5.502;2023-02-15T01:10:21;37.92;;;25.35;;
13981;SDS011;7065;50.880;5.502;2023-02-15T01:12:47;35.60;;;23.05;;
13981;SDS011;7065;50.880;5.502;2023-02-15T01:15:13;37.42;;;25.25;;
13981;SDS011;7065;50.880;5.502;2023-02-15T01:17:39;35.92;;;23.75;;
13981;SDS011;7065;50.880;5.502;2023-02-15T01:20:05;34.75;;;23.23;;
13981;SDS011;7065;50.880;5.502;2023-02-15T01:22:31;38.67;;;24.55;;
13981;SDS011;7065;50.880;5.502;2023-02-15T01:24:57;43.40;;;25.90;;
13981;SDS011;7065;50.880;5.502;2023-02-15T01:27:23;40.30;;;25.40;;
13981;SDS011;7065;50.880;5.502;2023-02-15T01:29:48;40.40;;;26.45;;
13981;SDS011;7065;50.880;5.502;2023-02-15T01:32:15;37.35;;;26.02;;
13981;SDS011;7065;50.880;5.502;2023-02-15T01:34:40;36.95;;;24.88;;
13981;SDS011;7065;50.880;5.502;2023-02-15T01:37:06;43.63;;;25.50;;
13981;SDS011;7065;50.880;5.502;2023-02-15T01:39:32;38.65;;;26.13;;
13981;SDS011;7065;50.880;5.502;2023-02-15T01:41:57;41.28;;;26.52;;
13981;SDS011;7065;50.880;5.502;2023-02-15T01:47:09;40.67;;;24.90;;
13981;SDS011;7065;50.880;5.502;2023-02-15T01:49:37;39.67;;;25.33;;
13981;SDS011;7065;50.880;5.502;2023-02-15T01:52:06;40.67;;;25.73;;
13981;SDS011;7065;50.880;5.502;2023-02-15T01:54:34;44.03;;;27.10;;
13981;SDS011;7065;50.880;5.502;2023-02-15T01:57:10;40.72;;;25.80;;
13981;SDS011;7065;50.880;5.502;2023-02-15T01:59:41;44.60;;;26.95;;
13981;SDS011;7065;50.880;5.502;2023-02-15T02:02:11;39.72;;;25.83;;
13981;SDS011;7065;50.880;5.502;2023-02-15T02:07:16;43.17;;;26.70;;
13981;SDS011;7065;50.880;5.502;2023-02-15T02:09:45;40.15;;;25.60;;
13981;SDS011;7065;50.880;5.502;2023-02-15T02:12:12;36.83;;;24.08;;
13981;SDS011;7065;50.880;5.502;2023-02-15T02:14:39;39.42;;;26.20;;
13981;SDS011;7065;50.880;5.502;2023-02-15T02:19:58;39.45;;;23.40;;
13981;SDS011;7065;50.880;5.502;2023-02-15T02:42:40;37.22;;;23.52;;
13981;SDS011;7065;50.880;5.502;2023-02-15T02:45:16;38.30;;;23.40;;
13981;SDS011;7065;50.880;5.502;2023-02-15T02:48:11;34.28;;;21.88;;
13981;SDS011;7065;50.880;5.502;2023-02-15T02:50:43;36.40;;;24.20;;
13981;SDS011;7065;50.880;5.502;2023-02-15T02:53:10;35.55;;;22.65;;
13981;SDS011;7065;50.880;5.502;2023-02-15T02:55:44;34.33;;;23.50;;
13981;SDS011;7065;50.880;5.502;2023-02-15T03:03:43;33.70;;;21.73;;
13981;SDS011;7065;50.880;5.502;2023-02-15T03:06:14;34.30;;;21.25;;
13981;SDS011;7065;50.880;5.502;2023-02-15T03:08:50;36.83;;;22.02;;
13981;SDS011;7065;50.880;5.502;2023-02-15T03:11:22;30.73;;;21.48;;
13981;SDS011;7065;50.880;5.502;2023-02-15T03:13:48;32.80;;;21.02;;
13981;SDS011;7065;50.880;5.502;2023-02-15T03:16:15;36.83;;;24.27;;
13981;SDS011;7065;50.880;5.502;2023-02-15T03:21:32;37.38;;;23.75;;
13981;SDS011;7065;50.880;5.502;2023-02-15T03:24:07;36.05;;;23.17;;
13981;SDS011;7065;50.880;5.502;2023-02-15T03:26:36;36.00;;;22.95;;
13981;SDS011;7065;50.880;5.502;2023-02-15T03:29:05;35.67;;;22.85;;
13981;SDS011;7065;50.880;5.502;2023-02-15T03:31:33;34.85;;;23.48;;
13981;SDS011;7065;50.880;5.502;2023-02-15T03:34:06;36.85;;;23.92;;
13981;SDS011;7065;50.880;5.502;2023-02-15T03:36:56;37.58;;;22.52;;
13981;SDS011;7065;50.880;5.502;2023-02-15T03:39:36;37.72;;;22.75;;
13981;SDS011;7065;50.880;5.502;2023-02-15T03:47:34;38.20;;;23.65;;
13981;SDS011;7065;50.880;5.502;2023-02-15T03:50:03;38.25;;;23.38;;
13981;SDS011;7065;50.880;5.502;2023-02-15T03:52:55;35.10;;;23.60;;
13981;SDS011;7065;50.880;5.502;2023-02-15T03:55:25;34.22;;;22.38;;
13981;SDS011;7065;50.880;5.502;2023-02-15T03:57:51;34.40;;;21.30;;
13981;SDS011;7065;50.880;5.502;2023-02-15T04:00:36;34.92;;;21.20;;
13981;SDS011;7065;50.880;5.502;2023-02-15T04:03:36;32.83;;;21.25;;
13981;SDS011;7065;50.880;5.502;2023-02-15T04:06:06;37.67;;;22.77;;
13981;SDS011;7065;50.880;5.502;2023-02-15T04:08:32;34.00;;;21.58;;
13981;SDS011;7065;50.880;5.502;2023-02-15T04:11:16;34.35;;;20.38;;
13981;SDS011;7065;50.880;5.502;2023-02-15T04:13:42;40.42;;;23.63;;
13981;SDS011;7065;50.880;5.502;2023-02-15T04:16:08;41.80;;;22.00;;
13981;SDS011;7065;50.880;5.502;2023-02-15T04:18:38;39.50;;;21.50;;
13981;SDS011;7065;50.880;5.502;2023-02-15T04:21:24;43.92;;;23.90;;
13981;SDS011;7065;50.880;5.502;2023-02-15T04:24:09;33.10;;;19.42;;
13981;SDS011;7065;50.880;5.502;2023-02-15T04:26:54;35.28;;;19.85;;
13981;SDS011;7065;50.880;5.502;2023-02-15T04:29:23;44.78;;;25.00;;
13981;SDS011;7065;50.880;5.502;2023-02-15T04:31:50;40.97;;;23.05;;
13981;SDS011;7065;50.880;5.502;2023-02-15T04:34:17;39.22;;;22.75;;
13981;SDS011;7065;50.880;5.502;2023-02-15T04:36:42;44.67;;;25.70;;
13981;SDS011;7065;50.880;5.502;2023-02-15T04:39:09;41.92;;;26.10;;
13981;SDS011;7065;50.880;5.502;2023-02-15T04:41:37;45.20;;;26.75;;
13981;SDS011;7065;50.880;5.502;2023-02-15T04:44:03;41.83;;;26.65;;
13981;SDS011;7065;50.880;5.502;2023-02-15T04:46:29;44.05;;;27.48;;
13981;SDS011;7065;50.880;5.502;2023-02-15T04:48:55;42.03;;;25.55;;
13981;SDS011;7065;50.880;5.502;2023-02-15T04:51:20;43.22;;;25.90;;
13981;SDS011;7065;50.880;5.502;2023-02-15T04:53:47;43.85;;;27.52;;
13981;SDS011;7065;50.880;5.502;2023-02-15T04:56:13;42.85;;;25.75;;
13981;SDS011;7065;50.880;5.502;2023-02-15T04:58:38;39.78;;;24.75;;
13981;SDS011;7065;50.880;5.502;2023-02-15T05:01:07;42.50;;;24.98;;
13981;SDS011;7065;50.880;5.502;2023-02-15T05:03:33;39.67;;;23.58;;
13981;SDS011;7065;50.880;5.502;2023-02-15T05:05:59;41.75;;;26.08;;
13981;SDS011;7065;50.880;5.502;2023-02-15T05:08:25;43.85;;;25.83;;
13981;SDS011;7065;50.880;5.502;2023-02-15T05:10:51;43.15;;;26.63;;
13981;SDS011;7065;50.880;5.502;2023-02-15T05:13:17;38.25;;;25.15;;
13981;SDS011;7065;50.880;5.502;2023-02-15T05:15:46;37.33;;;23.27;;
13981;SDS011;7065;50.880;5.502;2023-02-15T05:18:14;36.88;;;22.75;;
13981;SDS011;7065;50.880;5.502;2023-02-15T05:20:39;41.05;;;26.50;;
13981;SDS011;7065;50.880;5.502;2023-02-15T05:23:05;45.70;;;26.65;;
13981;SDS011;7065;50.880;5.502;2023-02-15T05:25:31;40.65;;;25.63;;
13981;SDS011;7065;50.880;5.502;2023-02-15T05:28:15;44.47;;;27.80;;
13981;SDS011;7065;50.880;5.502;2023-02-15T05:33:13;43.13;;;26.45;;
13981;SDS011;7065;50.880;5.502;2023-02-15T05:35:39;40.72;;;25.35;;
13981;SDS011;7065;50.880;5.502;2023-02-15T05:38:05;42.13;;;25.35;;
13981;SDS011;7065;50.880;5.502;2023-02-15T05:40:31;39.78;;;23.80;;
13981;SDS011;7065;50.880;5.502;2023-02-15T05:42:56;40.15;;;25.45;;
13981;SDS011;7065;50.880;5.502;2023-02-15T05:45:22;34.95;;;22.80;;
13981;SDS011;7065;50.880;5.502;2023-02-15T05:47:48;41.25;;;23.40;;
13981;SDS011;7065;50.880;5.502;2023-02-15T05:50:14;34.10;;;21.20;;
13981;SDS011;7065;50.880;5.502;2023-02-15T05:52:40;38.10;;;23.40;;
13981;SDS011;7065;50.880;5.502;2023-02-15T05:55:05;36.00;;;22.67;;
13981;SDS011;7065;50.880;5.502;2023-02-15T05:57:33;37.70;;;22.52;;
13981;SDS011;7065;50.880;5.502;2023-02-15T05:59:59;40.67;;;23.55;;
13981;SDS011;7065;50.880;5.502;2023-02-15T06:02:25;46.78;;;26.60;;
13981;SDS011;7065;50.880;5.502;2023-02-15T06:04:51;40.65;;;23.95;;
13981;SDS011;7065;50.880;5.502;2023-02-15T06:07:17;48.80;;;27.80;;
13981;SDS011;7065;50.880;5.502;2023-02-15T06:09:42;73.50;;;29.40;;
13981;SDS011;7065;50.880;5.502;2023-02-15T06:12:09;53.17;;;26.75;;
13981;SDS011;7065;50.880;5.502;2023-02-15T06:14:34;45.35;;;26.00;;
13981;SDS011;7065;50.880;5.502;2023-02-15T06:17:00;45.97;;;27.13;;
13981;SDS011;7065;50.880;5.502;2023-02-15T06:19:26;52.45;;;27.88;;
13981;SDS011;7065;50.880;5.502;2023-02-15T06:21:52;54.15;;;27.90;;
13981;SDS011;7065;50.880;5.502;2023-02-15T06:24:17;43.80;;;25.75;;
13981;SDS011;7065;50.880;5.502;2023-02-15T06:26:43;48.53;;;28.27;;
13981;SDS011;7065;50.880;5.502;2023-02-15T06:29:09;50.17;;;27.77;;
13981;SDS011;7065;50.880;5.502;2023-02-15T06:31:34;48.55;;;29.23;;
13981;SDS011;7065;50.880;5.502;2023-02-15T06:34:00;52.78;;;32.22;;
13981;SDS011;7065;50.880;5.502;2023-02-15T06:36:27;57.15;;;31.88;;
13981;SDS011;7065;50.880;5.502;2023-02-15T06:38:53;54.60;;;31.25;;
13981;SDS011;7065;50.880;5.502;2023-02-15T06:41:19;67.75;;;35.30;;
13981;SDS011;7065;50.880;5.502;2023-02-15T06:43:45;60.42;;;32.88;;
13981;SDS011;7065;50.880;5.502;2023-02-15T06:46:11;51.65;;;32.03;;
13981;SDS011;7065;50.880;5.502;2023-02-15T06:48:37;52.28;;;31.58;;
13981;SDS011;7065;50.880;5.502;2023-02-15T06:51:02;56.08;;;31.35;;
13981;SDS011;7065;50.880;5.502;2023-02-15T06:53:28;54.25;;;29.58;;
13981;SDS011;7065;50.880;5.502;2023-02-15T06:56:01;48.83;;;29.38;;
13981;SDS011;7065;50.880;5.502;2023-02-15T06:58:38;54.50;;;28.33;;
13981;SDS011;7065;50.880;5.502;2023-02-15T07:01:05;43.55;;;26.33;;
13981;SDS011;7065;50.880;5.502;2023-02-15T07:03:31;46.03;;;25.90;;
13981;SDS011;7065;50.880;5.502;2023-02-15T07:05:58;59.42;;;29.88;;
13981;SDS011;7065;50.880;5.502;2023-02-15T07:08:25;58.42;;;28.63;;
13981;SDS011;7065;50.880;5.502;2023-02-15T07:10:52;62.88;;;33.05;;
13981;SDS011;7065;50.880;5.502;2023-02-15T07:13:18;56.28;;;32.58;;
13981;SDS011;7065;50.880;5.502;2023-02-15T07:15:44;53.67;;;28.77;;
13981;SDS011;7065;50.880;5.502;2023-02-15T07:18:12;51.40;;;27.15;;
13981;SDS011;7065;50.880;5.502;2023-02-15T07:20:38;44.17;;;25.65;;
13981;SDS011;7065;50.880;5.502;2023-02-15T07:23:07;46.33;;;26.23;;
13981;SDS011;7065;50.880;5.502;2023-02-15T07:25:33;51.28;;;27.15;;
13981;SDS011;7065;50.880;5.502;2023-02-15T07:28:00;47.08;;;26.10;;
13981;SDS011;7065;50.880;5.502;2023-02-15T07:30:27;45.05;;;27.88;;
13981;SDS011;7065;50.880;5.502;2023-02-15T07:32:55;49.08;;;26.83;;
13981;SDS011;7065;50.880;5.502;2023-02-15T07:35:46;48.15;;;27.95;;
13981;SDS011;7065;50.880;5.502;2023-02-15T07:38:16;54.05;;;30.85;;
13981;SDS011;7065;50.880;5.502;2023-02-15T07:40:44;51.97;;;29.90;;
13981;SDS011;7065;50.880;5.502;2023-02-15T07:43:11;48.47;;;30.33;;
13981;SDS011;7065;50.880;5.502;2023-02-15T07:45:37;51.83;;;30.60;;
13981;SDS011;7065;50.880;5.502;2023-02-15T07:48:03;48.88;;;30.73;;
13981;SDS011;7065;50.880;5.502;2023-02-15T07:50:30;52.25;;;31.88;;
13981;SDS011;7065;50.880;5.502;2023-02-15T07:52:56;54.90;;;31.58;;
13981;SDS011;7065;50.880;5.502;2023-02-15T07:55:21;59.25;;;32.45;;
13981;SDS011;7065;50.880;5.502;2023-02-15T07:57:48;54.83;;;33.50;;
13981;SDS011;7065;50.880;5.502;2023-02-15T08:00:15;58.22;;;33.60;;
13981;SDS011;7065;50.880;5.502;2023-02-15T08:02:49;59.85;;;34.45;;
13981;SDS011;7065;50.880;5.502;2023-02-15T08:05:35;59.38;;;34.75;;
13981;SDS011;7065;50.880;5.502;2023-02-15T08:08:01;56.78;;;33.50;;
13981;SDS011;7065;50.880;5.502;2023-02-15T08:10:27;58.05;;;34.03;;
13981;SDS011;7065;50.880;5.502;2023-02-15T08:13:13;54.67;;;34.15;;
13981;SDS011;7065;50.880;5.502;2023-02-15T08:15:39;60.00;;;36.75;;
13981;SDS011;7065;50.880;5.502;2023-02-15T08:18:04;60.08;;;36.25;;
13981;SDS011;7065;50.880;5.502;2023-02-15T08:20:30;66.20;;;38.08;;
13981;SDS011;7065;50.880;5.502;2023-02-15T08:22:56;59.70;;;36.30;;
13981;SDS011;7065;50.880;5.502;2023-02-15T08:25:21;58.55;;;36.20;;
13981;SDS011;7065;50.880;5.502;2023-02-15T08:27:47;54.10;;;33.08;;
13981;SDS011;7065;50.880;5.502;2023-02-15T08:30:14;55.90;;;34.40;;
13981;SDS011;7065;50.880;5.502;2023-02-15T08:32:39;56.75;;;34.08;;
13981;SDS011;7065;50.880;5.502;2023-02-15T08:35:05;65.47;;;36.42;;
13981;SDS011;7065;50.880;5.502;2023-02-15T08:37:31;60.65;;;35.88;;
13981;SDS011;7065;50.880;5.502;2023-02-15T08:39:57;56.63;;;34.65;;
13981;SDS011;7065;50.880;5.502;2023-02-15T08:42:23;54.92;;;34.45;;
13981;SDS011;7065;50.880;5.502;2023-02-15T08:44:48;61.40;;;33.53;;
13981;SDS011;7065;50.880;5.502;2023-02-15T08:47:16;55.40;;;32.92;;
13981;SDS011;7065;50.880;5.502;2023-02-15T08:49:42;56.60;;;32.47;;
13981;SDS011;7065;50.880;5.502;2023-02-15T08:52:09;52.05;;;32.88;;
13981;SDS011;7065;50.880;5.502;2023-02-15T08:54:34;55.53;;;32.70;;
13981;SDS011;7065;50.880;5.502;2023-02-15T08:57:00;54.28;;;32.55;;
13981;SDS011;7065;50.880;5.502;2023-02-15T08:59:26;56.20;;;34.10;;
13981;SDS011;7065;50.880;5.502;2023-02-15T09:01:52;57.65;;;34.38;;
13981;SDS011;7065;50.880;5.502;2023-02-15T09:04:18;64.35;;;34.72;;
13981;SDS011;7065;50.880;5.502;2023-02-15T09:06:46;60.50;;;33.38;;
13981;SDS011;7065;50.880;5.502;2023-02-15T09:09:13;62.28;;;36.80;;
13981;SDS011;7065;50.880;5.502;2023-02-15T09:11:39;62.42;;;36.33;;
13981;SDS011;7065;50.880;5.502;2023-02-15T09:14:08;67.18;;;36.97;;
13981;SDS011;7065;50.880;5.502;2023-02-15T09:16:38;61.50;;;34.90;;
13981;SDS011;7065;50.880;5.502;2023-02-15T09:19:05;59.83;;;34.45;;
13981;SDS011;7065;50.880;5.502;2023-02-15T09:21:32;61.78;;;35.53;;
13981;SDS011;7065;50.880;5.502;2023-02-15T09:24:01;60.88;;;36.05;;
13981;SDS011;7065;50.880;5.502;2023-02-15T09:26:30;53.47;;;32.50;;
13981;SDS011;7065;50.880;5.502;2023-02-15T09:28:59;59.30;;;35.10;;
13981;SDS011;7065;50.880;5.502;2023-02-15T09:31:27;48.55;;;32.53;;
13981;SDS011;7065;50.880;5.502;2023-02-15T09:33:55;52.17;;;32.53;;
13981;SDS011;7065;50.880;5.502;2023-02-15T09:38:58;45.25;;;28.90;;
13981;SDS011;7065;50.880;5.502;2023-02-15T10:03:47;38.08;;;25.35;;
13981;SDS011;7065;50.880;5.502;2023-02-15T10:06:18;34.80;;;24.02;;
13981;SDS011;7065;50.880;5.502;2023-02-15T10:20:28;39.28;;;25.20;;
13981;SDS011;7065;50.880;5.502;2023-02-15T10:25:28;37.80;;;25.83;;
13981;SDS011;7065;50.880;5.502;2023-02-15T10:28:06;37.97;;;25.10;;
13981;SDS011;7065;50.880;5.502;2023-02-15T10:30:57;34.13;;;23.45;;
13981;SDS011;7065;50.880;5.502;2023-02-15T10:33:39;32.78;;;22.95;;
13981;SDS011;7065;50.880;5.502;2023-02-15T10:41:57;33.42;;;21.75;;
13981;SDS011;7065;50.880;5.502;2023-02-15T10:55:49;28.85;;;18.85;;
13981;SDS011;7065;50.880;5.502;2023-02-15T11:01:10;25.60;;;17.83;;
13981;SDS011;7065;50.880;5.502;2023-02-15T11:03:56;29.65;;;19.33;;
13981;SDS011;7065;50.880;5.502;2023-02-15T11:06:50;27.95;;;19.40;;
13981;SDS011;7065;50.880;5.502;2023-02-15T11:09:21;27.90;;;18.35;;
13981;SDS011;7065;50.880;5.502;2023-02-15T11:11:50;28.92;;;19.27;;
13981;SDS011;7065;50.880;5.502;2023-02-15T11:14:21;25.75;;;18.38;;
13981;SDS011;7065;50.880;5.502;2023-02-15T11:16:59;25.52;;;17.67;;
13981;SDS011;7065;50.880;5.502;2023-02-15T11:19:31;24.90;;;17.58;;
13981;SDS011;7065;50.880;5.502;2023-02-15T11:22:14;25.38;;;18.02;;
13981;SDS011;7065;50.880;5.502;2023-02-15T11:24:41;24.45;;;17.33;;
13981;SDS011;7065;50.880;5.502;2023-02-15T11:29:38;24.52;;;18.42;;
13981;SDS011;7065;50.880;5.502;2023-02-15T11:32:54;28.77;;;20.38;;
13981;SDS011;7065;50.880;5.502;2023-02-15T11:35:18;28.95;;;20.38;;
13981;SDS011;7065;50.880;5.502;2023-02-15T11:37:57;27.80;;;19.95;;
13981;SDS011;7065;50.880;5.502;2023-02-15T11:40:30;26.58;;;19.75;;
13981;SDS011;7065;50.880;5.502;2023-02-15T11:43:34;26.23;;;18.75;;
13981;SDS011;7065;50.880;5.502;2023-02-15T11:46:01;26.95;;;20.15;;
13981;SDS011;7065;50.880;5.502;2023-02-15T11:48:28;28.17;;;21.13;;
13981;SDS011;7065;50.880;5.502;2023-02-15T11:50:56;28.42;;;20.10;;
13981;SDS011;7065;50.880;5.502;2023-02-15T11:53:23;27.48;;;20.35;;
13981;SDS011;7065;50.880;5.502;2023-02-15T11:55:51;26.98;;;19.13;;
13981;SDS011;7065;50.880;5.502;2023-02-15T12:01:24;24.83;;;18.73;;
13981;SDS011;7065;50.880;5.502;2023-02-15T12:04:04;27.33;;;20.42;;
13981;SDS011;7065;50.880;5.502;2023-02-15T12:06:51;26.30;;;18.23;;
13981;SDS011;7065;50.880;5.502;2023-02-15T12:14:48;24.20;;;17.75;;
13981;SDS011;7065;50.880;5.502;2023-02-15T12:17:16;30.67;;;18.10;;
13981;SDS011;7065;50.880;5.502;2023-02-15T12:19:43;27.48;;;18.98;;
13981;SDS011;7065;50.880;5.502;2023-02-15T12:24:58;25.38;;;18.25;;
13981;SDS011;7065;50.880;5.502;2023-02-15T12:27:26;27.25;;;18.35;;
13981;SDS011;7065;50.880;5.502;2023-02-15T12:30:07;24.13;;;17.33;;
13981;SDS011;7065;50.880;5.502;2023-02-15T12:32:47;25.67;;;18.67;;
13981;SDS011;7065;50.880;5.502;2023-02-15T12:37:56;25.65;;;18.08;;
13981;SDS011;7065;50.880;5.502;2023-02-15T12:40:26;23.92;;;17.75;;
13981;SDS011;7065;50.880;5.502;2023-02-15T12:42:53;23.95;;;17.13;;
13981;SDS011;7065;50.880;5.502;2023-02-15T12:45:27;26.40;;;19.17;;
13981;SDS011;7065;50.880;5.502;2023-02-15T12:50:39;26.02;;;19.17;;
13981;SDS011;7065;50.880;5.502;2023-02-15T12:55:48;25.65;;;18.05;;
13981;SDS011;7065;50.880;5.502;2023-02-15T13:01:02;23.52;;;17.35;;
13981;SDS011;7065;50.880;5.502;2023-02-15T13:03:38;26.05;;;18.33;;
13981;SDS011;7065;50.880;5.502;2023-02-15T13:06:15;25.48;;;18.48;;
13981;SDS011;7065;50.880;5.502;2023-02-15T13:08:46;26.00;;;19.02;;
13981;SDS011;7065;50.880;5.502;2023-02-15T13:11:19;23.25;;;16.73;;
13981;SDS011;7065;50.880;5.502;2023-02-15T13:13:51;23.98;;;17.65;;
13981;SDS011;7065;50.880;5.502;2023-02-15T13:19:01;23.48;;;17.75;;
13981;SDS011;7065;50.880;5.502;2023-02-15T13:21:51;25.67;;;18.95;;
13981;SDS011;7065;50.880;5.502;2023-02-15T13:24:21;25.63;;;19.17;;
13981;SDS011;7065;50.880;5.502;2023-02-15T13:26:57;30.98;;;20.67;;
13981;SDS011;7065;50.880;5.502;2023-02-15T13:29:25;27.65;;;19.17;;
13981;SDS011;7065;50.880;5.502;2023-02-15T13:31:54;28.45;;;19.63;;
13981;SDS011;7065;50.880;5.502;2023-02-15T13:39:36;24.80;;;18.85;;
13981;SDS011;7065;50.880;5.502;2023-02-15T13:42:25;28.98;;;19.33;;
13981;SDS011;7065;50.880;5.502;2023-02-15T13:45:02;26.85;;;19.63;;
13981;SDS011;7065;50.880;5.502;2023-02-15T14:09:37;26.30;;;20.02;;
13981;SDS011;7065;50.880;5.502;2023-02-15T14:12:20;28.75;;;19.27;;
13981;SDS011;7065;50.880;5.502;2023-02-15T14:26:10;28.48;;;19.50;;
13981;SDS011;7065;50.880;5.502;2023-02-15T14:31:13;28.33;;;18.23;;
13981;SDS011;7065;50.880;5.502;2023-02-15T14:33:41;25.52;;;18.55;;
13981;SDS011;7065;50.880;5.502;2023-02-15T14:36:15;25.92;;;18.40;;
13981;SDS011;7065;50.880;5.502;2023-02-15T14:45:04;27.30;;;17.77;;
13981;SDS011;7065;50.880;5.502;2023-02-15T14:49:39;25.85;;;17.13;;
13981;SDS011;7065;50.880;5.502;2023-02-15T14:52:06;27.45;;;17.10;;
13981;SDS011;7065;50.880;5.502;2023-02-15T15:00:19;26.17;;;18.65;;
13981;SDS011;7065;50.880;5.502;2023-02-15T15:02:16;25.30;;;17.50;;
13981;SDS011;7065;50.880;5.502;2023-02-15T15:04:55;24.10;;;16.50;;
13981;SDS011;7065;50.880;5.502;2023-02-15T15:13:00;26.02;;;17.98;;
13981;SDS011;7065;50.880;5.502;2023-02-15T15:15:48;26.65;;;17.05;;
13981;SDS011;7065;50.880;5.502;2023-02-15T15:21:09;24.15;;;17.13;;
13981;SDS011;7065;50.880;5.502;2023-02-15T15:23:38;26.67;;;17.35;;
13981;SDS011;7065;50.880;5.502;2023-02-15T15:26:26;24.77;;;16.98;;
13981;SDS011;7065;50.880;5.502;2023-02-15T15:28:54;24.67;;;16.88;;
13981;SDS011;7065;50.880;5.502;2023-02-15T15:34:18;31.13;;;18.77;;
13981;SDS011;7065;50.880;5.502;2023-02-15T15:50:31;25.77;;;18.30;;
13981;SDS011;7065;50.880;5.502;2023-02-15T15:52:58;26.80;;;18.95;;
13981;SDS011;7065;50.880;5.502;2023-02-15T15:55:27;26.52;;;18.73;;
13981;SDS011;7065;50.880;5.502;2023-02-15T15:58:05;26.45;;;18.70;;
13981;SDS011;7065;50.880;5.502;2023-02-15T16:00:35;26.02;;;18.73;;
13981;SDS011;7065;50.880;5.502;2023-02-15T16:03:04;27.48;;;20.20;;
13981;SDS011;7065;50.880;5.502;2023-02-15T16:05:37;27.00;;;19.30;;
13981;SDS011;7065;50.880;5.502;2023-02-15T16:08:03;25.10;;;18.55;;
13981;SDS011;7065;50.880;5.502;2023-02-15T16:10:29;28.38;;;19.10;;
13981;SDS011;7065;50.880;5.502;2023-02-15T16:12:58;27.30;;;18.63;;
13981;SDS011;7065;50.880;5.502;2023-02-15T16:15:25;29.45;;;20.33;;
13981;SDS011;7065;50.880;5.502;2023-02-15T16:18:15;26.85;;;19.20;;
13981;SDS011;7065;50.880;5.502;2023-02-15T16:20:48;29.05;;;20.27;;
13981;SDS011;7065;50.880;5.502;2023-02-15T16:28:47;28.83;;;20.27;;
13981;SDS011;7065;50.880;5.502;2023-02-15T16:31:15;31.63;;;22.42;;
13981;SDS011;7065;50.880;5.502;2023-02-15T16:33:42;32.80;;;21.70;;
13981;SDS011;7065;50.880;5.502;2023-02-15T16:36:10;31.33;;;20.45;;
13981;SDS011;7065;50.880;5.502;2023-02-15T16:41:13;28.30;;;21.15;;
13981;SDS011;7065;50.880;5.502;2023-02-15T16:43:43;27.13;;;18.88;;
13981;SDS011;7065;50.880;5.502;2023-02-15T16:46:11;27.95;;;20.42;;
13981;SDS011;7065;50.880;5.502;2023-02-15T16:48:45;27.73;;;20.83;;
13981;SDS011;7065;50.880;5.502;2023-02-15T16:51:20;28.42;;;21.73;;
13981;SDS011;7065;50.880;5.502;2023-02-15T16:53:48;29.77;;;21.15;;
13981;SDS011;7065;50.880;5.502;2023-02-15T16:56:14;26.92;;;20.90;;
13981;SDS011;7065;50.880;5.502;2023-02-15T16:58:48;28.08;;;21.55;;
13981;SDS011;7065;50.880;5.502;2023-02-15T17:01:16;30.92;;;21.27;;
13981;SDS011;7065;50.880;5.502;2023-02-15T17:03:48;29.80;;;20.98;;
13981;SDS011;7065;50.880;5.502;2023-02-15T17:06:21;27.80;;;20.77;;
13981;SDS011;7065;50.880;5.502;2023-02-15T17:08:51;26.33;;;19.98;;
13981;SDS011;7065;50.880;5.502;2023-02-15T17:11:18;25.08;;;19.40;;
13981;SDS011;7065;50.880;5.502;2023-02-15T17:19:21;28.52;;;20.65;;
13981;SDS011;7065;50.880;5.502;2023-02-15T17:24:39;24.08;;;18.10;;
13981;SDS011;7065;50.880;5.502;2023-02-15T17:27:10;23.35;;;17.92;;
13981;SDS011;7065;50.880;5.502;2023-02-15T17:29:40;26.98;;;19.73;;
13981;SDS011;7065;50.880;5.502;2023-02-15T17:32:18;27.73;;;19.83;;
13981;SDS011;7065;50.880;5.502;2023-02-15T17:42:44;31.10;;;21.38;;
13981;SDS011;7065;50.880;5.502;2023-02-15T17:45:10;43.00;;;27.67;;
13981;SDS011;7065;50.880;5.502;2023-02-15T17:47:36;44.17;;;29.98;;
13981;SDS011;7065;50.880;5.502;2023-02-15T17:50:03;40.80;;;28.42;;
13981;SDS011;7065;50.880;5.502;2023-02-15T17:52:30;43.13;;;29.17;;
13981;SDS011;7065;50.880;5.502;2023-02-15T17:54:56;39.95;;;27.83;;
13981;SDS011;7065;50.880;5.502;2023-02-15T17:57:40;40.00;;;28.38;;
13981;SDS011;7065;50.880;5.502;2023-02-15T18:00:06;40.30;;;29.45;;
13981;SDS011;7065;50.880;5.502;2023-02-15T18:02:51;39.83;;;29.33;;
13981;SDS011;7065;50.880;5.502;2023-02-15T18:05:35;38.70;;;28.27;;
13981;SDS011;7065;50.880;5.502;2023-02-15T18:08:22;51.75;;;29.98;;
13981;SDS011;7065;50.880;5.502;2023-02-15T18:11:09;45.20;;;30.40;;
13981;SDS011;7065;50.880;5.502;2023-02-15T18:13:54;42.17;;;28.50;;
13981;SDS011;7065;50.880;5.502;2023-02-15T18:16:22;43.20;;;27.55;;
13981;SDS011;7065;50.880;5.502;2023-02-15T18:18:54;45.92;;;27.58;;
13981;SDS011;7065;50.880;5.502;2023-02-15T18:21:21;47.13;;;28.30;;
13981;SDS011;7065;50.880;5.502;2023-02-15T18:23:48;42.22;;;27.38;;
13981;SDS011;7065;50.880;5.502;2023-02-15T18:26:21;44.92;;;27.08;;
13981;SDS011;7065;50.880;5.502;2023-02-15T18:28:48;36.85;;;25.55;;
13981;SDS011;7065;50.880;5.502;2023-02-15T18:31:15;39.40;;;26.08;;
13981;SDS011;7065;50.880;5.502;2023-02-15T18:33:45;36.80;;;26.30;;
13981;SDS011;7065;50.880;5.502;2023-02-15T18:36:17;38.25;;;26.13;;
13981;SDS011;7065;50.880;5.502;2023-02-15T18:38:50;38.47;;;28.90;;
13981;SDS011;7065;50.880;5.502;2023-02-15T18:41:18;34.42;;;26.00;;
13981;SDS011;7065;50.880;5.502;2023-02-15T18:43:45;41.15;;;28.08;;
13981;SDS011;7065;50.880;5.502;2023-02-15T18:46:13;38.67;;;27.10;;